createdAt,value
2019-02-23T00:02:08.954Z,7.37
2019-02-23T00:04:35.841Z,9.53
2019-02-23T00:07:02.778Z,8.50
2019-02-23T00:09:29.858Z,7.83
2019-02-23T00:11:56.798Z,8.53
2019-02-23T00:14:23.703Z,7.12
2019-02-23T00:16:51.036Z,8.35
2019-02-23T00:19:24.793Z,10.48
2019-02-23T00:21:46.967Z,10.82
2019-02-23T00:24:13.964Z,7.33
2019-02-23T00:26:40.985Z,7.42
2019-02-23T00:29:08.088Z,8.75
2019-02-23T00:31:35.121Z,8.15
2019-02-23T00:34:02.011Z,9.28
2019-02-23T00:36:29.066Z,10.40
2019-02-23T00:38:56.034Z,12.80
2019-02-23T00:41:23.025Z,10.48
2019-02-23T00:43:50.363Z,9.88
2019-02-23T00:46:17.297Z,15.20
2019-02-23T00:48:44.668Z,11.75
2019-02-23T00:51:11.737Z,8.95
2019-02-23T00:53:38.767Z,10.70
2019-02-23T00:56:05.894Z,8.20
2019-02-23T00:58:32.803Z,12.75
2019-02-23T01:00:59.769Z,9.85
2019-02-23T01:03:26.752Z,11.95
2019-02-23T01:05:53.795Z,9.80
2019-02-23T01:08:20.783Z,11.57
2019-02-23T01:10:57.688Z,11.43
2019-02-23T01:13:16.524Z,11.78
2019-02-23T01:15:43.529Z,10.38
2019-02-23T01:18:13.418Z,10.68
2019-02-23T01:20:40.362Z,13.35
2019-02-23T01:23:07.310Z,11.53
2019-02-23T01:25:34.266Z,14.15
2019-02-23T01:28:01.212Z,11.05
2019-02-23T01:30:28.129Z,10.30
2019-02-23T01:32:55.064Z,10.43
2019-02-23T01:35:22.050Z,12.03
2019-02-23T01:37:49.360Z,11.80
2019-02-23T01:40:16.363Z,10.38
2019-02-23T01:42:43.318Z,11.08
2019-02-23T01:45:10.319Z,10.25
2019-02-23T01:47:37.340Z,13.48
2019-02-23T01:50:05.872Z,13.83
2019-02-23T01:52:32.977Z,14.05
2019-02-23T01:54:59.916Z,11.28
2019-02-23T01:57:26.797Z,10.93
2019-02-23T01:59:53.730Z,12.50
2019-02-23T02:02:20.712Z,13.50
2019-02-23T02:04:47.645Z,12.23
2019-02-23T02:07:14.726Z,10.93
2019-02-23T02:09:42.438Z,11.57
2019-02-23T02:12:11.356Z,12.37
2019-02-23T02:14:38.415Z,14.20
2019-02-23T02:17:05.414Z,13.72
2019-02-23T02:19:32.437Z,13.43
2019-02-23T02:21:59.348Z,11.30
2019-02-23T02:24:26.269Z,12.00
2019-02-23T02:26:53.253Z,11.43
2019-02-23T02:29:20.164Z,12.20
2019-02-23T02:31:47.064Z,12.03
2019-02-23T02:34:15.514Z,13.60
2019-02-23T02:36:42.440Z,17.05
2019-02-23T02:39:11.304Z,10.25
2019-02-23T02:41:38.204Z,12.65
2019-02-23T02:44:05.113Z,14.53
2019-02-23T02:46:32.201Z,15.00
2019-02-23T02:48:59.225Z,14.23
2019-02-23T02:51:26.154Z,12.33
2019-02-23T02:53:53.245Z,10.90
2019-02-23T02:56:20.129Z,13.58
2019-02-23T02:58:47.043Z,12.35
2019-02-23T03:01:13.957Z,14.07
2019-02-23T03:03:40.954Z,12.63
2019-02-23T03:06:07.909Z,10.80
2019-02-23T03:08:34.912Z,12.53
2019-02-23T03:11:01.896Z,14.73
2019-02-23T03:13:28.849Z,11.90
2019-02-23T03:15:55.732Z,12.63
2019-02-23T03:18:22.664Z,16.37
2019-02-23T03:20:49.589Z,14.40
2019-02-23T03:23:16.690Z,14.28
2019-02-23T03:25:43.712Z,17.52
2019-02-23T03:28:10.613Z,15.98
2019-02-23T03:30:37.558Z,14.05
2019-02-23T03:33:04.703Z,12.63
2019-02-23T03:35:31.904Z,15.13
2019-02-23T03:37:59.045Z,14.43
2019-02-23T03:40:26.356Z,14.20
2019-02-23T03:42:53.355Z,16.80
2019-02-23T03:45:20.432Z,14.03
2019-02-23T03:47:47.378Z,16.10
2019-02-23T03:50:14.409Z,16.10
2019-02-23T03:52:42.818Z,13.88
2019-02-23T03:55:09.923Z,15.68
2019-02-23T03:57:37.063Z,14.93
2019-02-23T04:00:05.127Z,13.72
2019-02-23T04:02:32.192Z,14.50
2019-02-23T04:04:59.214Z,13.13
2019-02-23T04:07:26.320Z,14.65
2019-02-23T04:09:54.155Z,15.72
2019-02-23T04:12:21.257Z,16.55
2019-02-23T04:14:48.324Z,14.47
2019-02-23T04:17:15.248Z,16.50
2019-02-23T04:19:42.172Z,15.70
2019-02-23T04:22:09.281Z,13.68
2019-02-23T04:24:36.407Z,16.48
2019-02-23T04:27:03.449Z,14.18
2019-02-23T04:29:30.521Z,15.58
2019-02-23T04:31:57.570Z,16.55
2019-02-23T04:34:25.926Z,15.60
2019-02-23T04:36:52.995Z,16.87
2019-02-23T04:39:21.124Z,13.95
2019-02-23T04:41:49.166Z,17.37
2019-02-23T04:44:16.624Z,18.92
2019-02-23T04:46:44.176Z,17.50
2019-02-23T04:49:11.135Z,17.70
2019-02-23T04:51:38.198Z,17.55
2019-02-23T04:54:11.352Z,18.23
2019-02-23T04:56:38.169Z,16.27
2019-02-23T04:59:05.290Z,16.23
2019-02-23T05:01:32.256Z,15.70
2019-02-23T05:03:59.615Z,15.85
2019-02-23T05:06:26.567Z,17.40
2019-02-23T05:08:53.706Z,19.32
2019-02-23T05:11:20.719Z,18.42
2019-02-23T05:13:47.662Z,20.12
2019-02-23T05:16:14.909Z,17.95
2019-02-23T05:18:42.673Z,18.10
2019-02-23T05:21:09.686Z,17.35
2019-02-23T05:23:36.600Z,17.92
2019-02-23T05:26:03.632Z,18.27
2019-02-23T05:28:31.322Z,18.23
2019-02-23T05:30:58.539Z,20.10
2019-02-23T05:33:28.238Z,22.05
2019-02-23T05:35:55.207Z,19.75
2019-02-23T05:38:22.265Z,19.42
2019-02-23T05:40:49.307Z,16.62
2019-02-23T05:43:16.493Z,18.80
2019-02-23T05:45:43.704Z,22.10
2019-02-23T05:48:10.685Z,17.98
2019-02-23T05:50:37.745Z,20.90
2019-02-23T05:53:05.051Z,17.10
2019-02-23T05:55:33.221Z,20.43
2019-02-23T05:58:00.197Z,21.75
2019-02-23T06:00:27.356Z,20.65
2019-02-23T06:02:54.362Z,21.17
2019-02-23T06:05:21.302Z,22.30
2019-02-23T06:07:48.348Z,19.85
2019-02-23T06:10:15.383Z,22.67
2019-02-23T06:12:42.337Z,18.65
2019-02-23T06:15:10.871Z,19.40
2019-02-23T06:17:37.895Z,22.30
2019-02-23T06:20:05.359Z,21.35
2019-02-23T06:22:32.453Z,23.77
2019-02-23T06:24:59.459Z,20.00
2019-02-23T06:27:26.505Z,20.02
2019-02-23T06:29:55.295Z,18.30
2019-02-23T06:32:23.456Z,19.15
2019-02-23T06:34:50.461Z,22.02
2019-02-23T06:37:17.479Z,20.17
2019-02-23T06:39:44.544Z,20.52
2019-02-23T06:42:11.556Z,22.70
2019-02-23T06:44:38.724Z,22.05
2019-02-23T06:47:05.672Z,22.13
2019-02-23T06:49:32.743Z,23.42
2019-02-23T06:52:04.370Z,22.65
2019-02-23T06:54:28.565Z,19.02
2019-02-23T06:56:55.598Z,19.82
2019-02-23T06:59:22.551Z,20.88
2019-02-23T07:01:49.570Z,19.73
2019-02-23T07:04:16.601Z,21.95
2019-02-23T07:06:43.618Z,20.88
2019-02-23T07:09:10.642Z,22.58
2019-02-23T07:11:38.538Z,23.92
2019-02-23T07:14:05.666Z,21.80
2019-02-23T07:16:32.706Z,23.52
2019-02-23T07:18:59.644Z,19.62
2019-02-23T07:21:26.824Z,25.75
2019-02-23T07:23:53.846Z,18.77
2019-02-23T07:26:20.824Z,18.00
2019-02-23T07:28:47.812Z,19.48
2019-02-23T07:31:14.778Z,15.45
2019-02-23T07:33:41.829Z,18.52
2019-02-23T07:36:08.722Z,22.48
2019-02-23T07:38:35.873Z,20.37
2019-02-23T07:41:03.139Z,19.35
2019-02-23T07:43:31.053Z,22.75
2019-02-23T07:45:58.042Z,20.37
2019-02-23T07:48:25.089Z,17.40
2019-02-23T07:50:57.149Z,23.80
2019-02-23T07:53:33.490Z,20.32
2019-02-23T07:56:00.756Z,18.20
2019-02-23T07:58:27.833Z,21.10
2019-02-23T08:00:54.739Z,19.12
2019-02-23T08:03:21.909Z,20.25
2019-02-23T08:05:49.027Z,21.23
2019-02-23T08:08:16.048Z,20.68
2019-02-23T08:10:43.097Z,20.48
2019-02-23T08:13:10.791Z,19.65
2019-02-23T08:15:37.975Z,20.57
2019-02-23T08:18:04.973Z,23.30
2019-02-23T08:20:31.979Z,21.68
2019-02-23T08:22:58.997Z,22.02
2019-02-23T08:25:25.879Z,17.77
2019-02-23T08:27:52.799Z,20.37
2019-02-23T08:30:19.904Z,20.08
2019-02-23T08:32:47.118Z,18.95
2019-02-23T08:35:16.471Z,20.88
2019-02-23T08:37:45.097Z,20.12
2019-02-23T08:40:12.449Z,21.37
2019-02-23T08:42:39.511Z,18.27
2019-02-23T08:45:07.185Z,20.85
2019-02-23T08:50:02.743Z,19.95
2019-02-23T08:52:29.753Z,21.75
2019-02-23T08:54:56.748Z,17.87
2019-02-23T08:57:23.725Z,18.42
2019-02-23T08:59:50.822Z,17.75
2019-02-23T09:02:19.214Z,19.27
2019-02-23T09:04:46.313Z,20.70
2019-02-23T09:07:13.444Z,21.37
2019-02-23T09:09:40.758Z,18.00
2019-02-23T09:12:08.923Z,18.87
2019-02-23T09:14:35.995Z,18.90
2019-02-23T09:17:03.215Z,18.90
2019-02-23T09:19:31.279Z,19.90
2019-02-23T09:21:59.688Z,19.02
2019-02-23T09:24:27.117Z,17.15
2019-02-23T09:26:54.256Z,18.02
2019-02-23T09:29:21.334Z,15.83
2019-02-23T09:31:48.406Z,19.27
2019-02-23T09:34:16.579Z,18.42
2019-02-23T09:36:46.151Z,14.85
2019-02-23T09:39:12.534Z,17.12
2019-02-23T09:41:39.643Z,17.65
2019-02-23T09:44:06.617Z,17.27
2019-02-23T09:46:33.794Z,17.17
2019-02-23T09:49:00.850Z,20.10
2019-02-23T09:51:27.822Z,19.65
2019-02-23T09:53:54.907Z,17.70
2019-02-23T09:56:21.988Z,18.32
2019-02-23T09:58:49.074Z,16.73
2019-02-23T10:01:16.084Z,18.02
2019-02-23T10:03:43.149Z,16.62
2019-02-23T10:06:10.166Z,18.20
2019-02-23T10:08:37.148Z,19.07
2019-02-23T10:11:04.164Z,16.87
2019-02-23T10:13:31.204Z,17.70
2019-02-23T10:15:58.322Z,20.17
2019-02-23T10:18:25.376Z,18.62
2019-02-23T10:20:52.412Z,18.30
2019-02-23T10:23:22.388Z,16.50
2019-02-23T10:25:48.386Z,17.52
2019-02-23T10:28:16.522Z,19.85
2019-02-23T10:30:43.531Z,17.27
2019-02-23T10:33:10.542Z,15.55
2019-02-23T10:35:37.484Z,18.27
2019-02-23T10:38:04.558Z,16.65
2019-02-23T10:40:31.627Z,16.10
2019-02-23T10:42:58.680Z,17.82
2019-02-23T10:45:25.715Z,18.23
2019-02-23T10:47:52.908Z,15.35
2019-02-23T10:50:22.054Z,15.28
2019-02-23T10:52:49.135Z,16.52
2019-02-23T10:55:16.323Z,18.90
2019-02-23T10:57:43.406Z,16.73
2019-02-23T11:00:17.494Z,16.57
2019-02-23T11:02:44.681Z,18.73
2019-02-23T11:05:12.057Z,17.87
2019-02-23T11:07:39.166Z,17.30
2019-02-23T11:10:06.333Z,17.15
2019-02-23T11:12:33.379Z,16.60
2019-02-23T11:15:00.618Z,17.12
2019-02-23T11:17:27.780Z,16.05
2019-02-23T11:19:55.020Z,16.70
2019-02-23T11:22:22.066Z,15.60
2019-02-23T11:24:49.013Z,17.10
2019-02-23T11:27:16.031Z,16.80
2019-02-23T11:29:43.118Z,17.20
2019-02-23T11:32:10.327Z,15.88
2019-02-23T11:34:37.493Z,23.32
2019-02-23T11:37:04.632Z,16.23
2019-02-23T11:39:32.961Z,15.90
2019-02-23T11:42:00.429Z,18.25
2019-02-23T11:44:27.580Z,19.27
2019-02-23T11:47:01.770Z,15.80
2019-02-23T11:49:23.824Z,16.50
2019-02-23T11:51:50.812Z,16.52
2019-02-23T11:54:17.866Z,16.32
2019-02-23T11:56:44.924Z,19.10
2019-02-23T11:59:11.916Z,13.48
2019-02-23T12:01:38.981Z,15.43
2019-02-23T12:04:06.114Z,15.40
2019-02-23T12:06:33.052Z,18.32
2019-02-23T12:09:00.030Z,14.03
2019-02-23T12:11:27.039Z,17.85
2019-02-23T12:13:54.028Z,15.58
2019-02-23T12:16:21.540Z,15.55
2019-02-23T12:18:48.600Z,15.65
2019-02-23T12:21:15.648Z,16.30
2019-02-23T12:23:42.648Z,14.73
2019-02-23T12:26:09.585Z,13.75
2019-02-23T12:28:36.604Z,13.72
2019-02-23T12:31:03.586Z,13.75
2019-02-23T12:33:30.694Z,16.62
2019-02-23T12:35:57.642Z,16.65
2019-02-23T12:38:24.974Z,14.85
2019-02-23T12:40:52.118Z,13.18
2019-02-23T12:43:19.166Z,16.40
2019-02-23T12:45:46.115Z,14.10
2019-02-23T12:48:13.192Z,14.15
2019-02-23T12:50:40.348Z,15.30
2019-02-23T12:53:07.389Z,15.72
2019-02-23T12:55:34.332Z,15.88
2019-02-23T12:58:01.308Z,13.95
2019-02-23T13:00:28.246Z,15.05
2019-02-23T13:02:55.197Z,15.43
2019-02-23T13:05:22.104Z,13.75
2019-02-23T13:07:49.144Z,20.10
2019-02-23T13:10:16.123Z,16.82
2019-02-23T13:13:27.917Z,14.65
2019-02-23T13:16:11.526Z,16.48
2019-02-23T13:19:19.132Z,14.35
2019-02-23T13:22:39.852Z,13.68
2019-02-23T13:25:50.305Z,15.65
2019-02-23T13:28:57.904Z,16.55
2019-02-23T13:32:00.671Z,15.43
2019-02-23T13:35:15.345Z,12.47
2019-02-23T13:37:58.871Z,15.98
2019-02-23T13:40:54.344Z,13.03
2019-02-23T13:43:57.990Z,12.78
2019-02-23T13:47:01.434Z,15.68
2019-02-23T13:50:14.033Z,13.30
2019-02-23T13:53:28.890Z,14.70
2019-02-23T13:56:31.107Z,14.58
2019-02-23T13:59:39.224Z,14.50
2019-02-23T14:02:28.690Z,19.10
2019-02-23T14:05:40.546Z,14.30
2019-02-23T14:08:48.196Z,15.78
2019-02-23T14:11:54.943Z,15.15
2019-02-23T14:15:01.401Z,16.30
2019-02-23T14:18:16.212Z,16.70
2019-02-23T14:21:46.397Z,17.77
2019-02-23T14:24:50.108Z,13.48
2019-02-23T14:27:32.532Z,13.72
2019-02-23T14:30:50.462Z,11.08
2019-02-23T14:34:02.077Z,12.63
2019-02-23T14:37:10.804Z,10.43
2019-02-23T14:40:14.383Z,13.98
2019-02-23T14:43:21.625Z,14.30
2019-02-23T14:46:45.501Z,10.95
2019-02-23T14:50:15.483Z,13.95
2019-02-23T14:53:35.393Z,11.57
2019-02-23T14:56:31.793Z,13.98
2019-02-23T14:59:23.843Z,11.25
2019-02-23T15:02:46.754Z,10.30
2019-02-23T15:05:50.121Z,10.60
2019-02-23T15:08:44.883Z,10.45
2019-02-23T15:11:49.691Z,10.05
2019-02-23T15:14:55.734Z,11.70
2019-02-23T15:17:59.169Z,11.63
2019-02-23T15:21:02.449Z,10.93
2019-02-23T15:24:13.894Z,10.32
2019-02-23T15:27:24.441Z,12.60
2019-02-23T15:30:29.918Z,13.00
2019-02-23T15:34:00.005Z,12.13
2019-02-23T15:37:00.647Z,10.95
2019-02-23T15:39:51.379Z,12.20
2019-02-23T15:42:34.187Z,12.53
2019-02-23T15:45:46.593Z,11.55
2019-02-23T15:49:13.925Z,29.57
2019-02-23T15:51:41.147Z,14.38
2019-02-23T15:54:08.418Z,10.63
2019-02-23T15:56:35.489Z,11.35
2019-02-23T15:59:02.364Z,13.25
2019-02-23T16:01:29.335Z,13.62
2019-02-23T16:03:56.350Z,12.80
2019-02-23T16:06:23.380Z,11.15
2019-02-23T16:08:50.396Z,12.47
2019-02-23T16:11:17.549Z,12.40
2019-02-23T16:13:44.586Z,13.13
2019-02-23T16:16:11.508Z,10.68
2019-02-23T16:18:38.845Z,16.00
2019-02-23T16:21:06.069Z,12.55
2019-02-23T16:23:35.586Z,12.45
2019-02-23T16:26:01.878Z,12.88
2019-02-23T16:28:28.888Z,11.85
2019-02-23T16:30:55.895Z,18.30
2019-02-23T16:33:23.358Z,11.40
2019-02-23T16:35:50.760Z,10.23
2019-02-23T16:38:18.067Z,10.82
2019-02-23T16:40:45.585Z,9.00
2019-02-23T16:43:13.074Z,10.20
2019-02-23T16:45:40.523Z,9.45
2019-02-23T16:48:08.218Z,11.57
2019-02-23T16:50:35.733Z,10.05
2019-02-23T16:53:03.216Z,12.28
2019-02-23T16:55:30.965Z,11.03
2019-02-23T16:57:59.157Z,11.43
2019-02-23T17:00:26.859Z,9.70
2019-02-23T17:02:54.422Z,10.98
2019-02-23T17:05:21.564Z,9.30
2019-02-23T17:11:23.076Z,10.63
2019-02-23T17:13:50.532Z,8.53
2019-02-23T17:16:17.698Z,10.80
2019-02-23T17:18:44.926Z,11.30
2019-02-23T17:21:12.262Z,10.93
2019-02-23T17:23:39.265Z,9.25
2019-02-23T17:26:06.987Z,11.15
2019-02-23T17:28:34.036Z,11.53
2019-02-23T17:31:01.097Z,11.43
2019-02-23T17:33:28.171Z,9.40
2019-02-23T17:35:55.374Z,13.53
2019-02-23T17:38:22.416Z,13.88
2019-02-23T17:40:49.532Z,9.20
2019-02-23T17:43:16.567Z,19.10
2019-02-23T17:45:43.710Z,11.97
2019-02-23T17:48:11.073Z,9.20
2019-02-23T17:50:38.054Z,11.78
2019-02-23T17:53:05.061Z,9.28
2019-02-23T17:55:32.120Z,11.53
2019-02-23T17:57:59.263Z,13.93
2019-02-23T18:00:26.307Z,11.68
2019-02-23T18:02:53.348Z,15.65
2019-02-23T18:05:20.268Z,9.80
2019-02-23T18:07:47.655Z,12.95
2019-02-23T18:10:14.985Z,11.88
2019-02-23T18:12:42.381Z,12.90
2019-02-23T18:15:10.003Z,12.03
2019-02-23T18:17:37.542Z,13.38
2019-02-23T18:20:06.570Z,11.70
2019-02-23T18:22:34.046Z,15.53
2019-02-23T18:25:01.300Z,19.40
2019-02-23T18:27:29.238Z,21.87
2019-02-23T18:29:56.349Z,19.82
2019-02-23T18:32:23.434Z,23.80
2019-02-23T18:34:50.525Z,22.45
2019-02-23T18:37:17.446Z,21.00
2019-02-23T18:39:44.601Z,25.88
2019-02-23T18:42:11.778Z,23.07
2019-02-23T18:44:38.780Z,17.87
2019-02-23T18:47:05.912Z,18.32
2019-02-23T18:49:32.997Z,18.67
2019-02-23T18:51:59.946Z,27.22
2019-02-23T18:54:26.905Z,22.80
2019-02-23T18:56:53.925Z,25.60
2019-02-23T18:59:20.962Z,22.85
2019-02-23T19:01:47.874Z,31.15
2019-02-23T19:04:15.799Z,21.12
2019-02-23T19:06:42.786Z,31.70
2019-02-23T19:09:09.809Z,30.17
2019-02-23T19:11:36.943Z,24.55
2019-02-23T19:14:03.986Z,23.52
2019-02-23T19:16:31.035Z,27.95
2019-02-23T19:18:58.104Z,28.02
2019-02-23T19:21:25.105Z,23.80
2019-02-23T19:23:53.215Z,30.05
2019-02-23T19:26:20.548Z,23.20
2019-02-23T19:28:47.881Z,22.98
2019-02-23T19:31:18.457Z,22.45
2019-02-23T19:33:45.743Z,22.52
2019-02-23T19:36:16.329Z,24.35
2019-02-23T19:38:43.975Z,24.05
2019-02-23T19:41:11.266Z,28.32
2019-02-23T19:43:38.740Z,21.35
2019-02-23T19:46:06.358Z,22.58
2019-02-23T19:48:34.095Z,20.70
2019-02-23T19:51:04.242Z,16.23
2019-02-23T19:53:31.543Z,18.10
2019-02-23T19:55:58.535Z,17.98
2019-02-23T19:58:25.617Z,19.55
2019-02-23T20:00:52.638Z,17.57
2019-02-23T20:03:19.554Z,16.12
2019-02-23T20:05:46.893Z,15.18
2019-02-23T20:08:14.008Z,13.90
2019-02-23T20:10:42.899Z,15.10
2019-02-23T20:13:10.612Z,14.40
2019-02-23T20:15:37.945Z,13.62
2019-02-23T20:18:05.978Z,17.27
2019-02-23T20:20:33.256Z,13.32
2019-02-23T20:23:00.691Z,18.42
2019-02-23T20:25:27.730Z,10.88
2019-02-23T20:27:54.654Z,13.35
2019-02-23T20:30:21.812Z,12.90
2019-02-23T20:32:51.599Z,11.93
2019-02-23T20:35:18.701Z,9.98
2019-02-23T20:37:46.288Z,10.08
2019-02-23T20:40:13.557Z,15.13
2019-02-23T20:42:43.779Z,26.00
2019-02-23T20:45:11.473Z,13.40
2019-02-23T20:47:38.980Z,12.35
2019-02-23T20:50:06.573Z,14.43
2019-02-23T20:52:33.604Z,15.93
2019-02-23T20:55:00.628Z,15.32
2019-02-23T20:57:27.673Z,14.25
2019-02-23T20:59:54.834Z,12.20
2019-02-23T21:02:21.836Z,15.35
2019-02-23T21:04:48.893Z,12.28
2019-02-23T21:07:16.003Z,15.08
2019-02-23T21:09:43.180Z,13.88
2019-02-23T21:12:10.367Z,13.58
2019-02-23T21:14:37.456Z,14.90
2019-02-23T21:17:07.492Z,18.05
2019-02-23T21:19:34.696Z,16.40
2019-02-23T21:22:01.788Z,14.98
2019-02-23T21:24:29.000Z,15.43
2019-02-23T21:26:56.102Z,12.55
2019-02-23T21:29:23.156Z,20.90
2019-02-23T21:31:50.324Z,15.58
2019-02-23T21:34:17.328Z,15.20
2019-02-23T21:36:44.367Z,14.87
2019-02-23T21:39:11.727Z,14.43
2019-02-23T21:41:38.698Z,14.07
2019-02-23T21:44:05.772Z,14.05
2019-02-23T21:46:32.985Z,14.18
2019-02-23T21:49:00.144Z,13.68
2019-02-23T21:51:27.168Z,12.50
2019-02-23T21:53:54.161Z,14.63
2019-02-23T21:56:21.199Z,13.48
2019-02-23T21:58:49.391Z,17.10
2019-02-23T22:01:16.784Z,15.48
2019-02-23T22:03:43.815Z,13.00
2019-02-23T22:06:13.284Z,13.78
2019-02-23T22:08:40.178Z,13.70
2019-02-23T22:11:07.107Z,10.50
2019-02-23T22:13:34.484Z,10.35
2019-02-23T22:16:01.632Z,12.80
2019-02-23T22:18:28.653Z,14.10
2019-02-23T22:20:57.734Z,14.75
2019-02-23T22:23:24.797Z,12.63
2019-02-23T22:25:51.844Z,12.88
2019-02-23T22:28:18.913Z,11.90
2019-02-23T22:30:45.934Z,13.88
2019-02-23T22:33:13.365Z,11.43
2019-02-23T22:35:40.597Z,13.70
2019-02-23T22:38:07.820Z,14.20
2019-02-23T22:40:34.883Z,11.00
2019-02-23T22:43:01.925Z,14.28
2019-02-23T22:45:30.446Z,17.48
2019-02-23T22:47:57.810Z,12.25
2019-02-23T22:50:27.928Z,14.63
2019-02-23T22:52:55.210Z,11.25
2019-02-23T22:55:22.658Z,12.03
2019-02-23T22:57:49.916Z,13.05
2019-02-23T23:00:24.880Z,12.90
2019-02-23T23:02:52.395Z,12.65
2019-02-23T23:05:20.938Z,11.93
2019-02-23T23:07:47.916Z,13.93
2019-02-23T23:10:14.898Z,20.72
2019-02-23T23:12:41.944Z,10.95
2019-02-23T23:15:09.137Z,13.00
2019-02-23T23:17:41.911Z,13.32
2019-02-23T23:20:09.359Z,12.60
2019-02-23T23:22:36.438Z,9.68
2019-02-23T23:25:03.756Z,12.28
2019-02-23T23:27:30.786Z,9.90
2019-02-23T23:29:57.884Z,14.80
2019-02-23T23:32:24.806Z,11.30
2019-02-23T23:34:51.834Z,11.43
2019-02-23T23:37:21.426Z,13.18
2019-02-23T23:39:48.830Z,12.15
2019-02-23T23:42:17.489Z,10.15
2019-02-23T23:44:45.149Z,11.45
2019-02-23T23:47:12.209Z,11.78
2019-02-23T23:49:39.156Z,11.00
2019-02-23T23:52:06.316Z,10.25
2019-02-23T23:54:33.364Z,10.80
2019-02-23T23:57:00.381Z,14.05
2019-02-23T23:59:27.309Z,12.70
